sensor_id;sensor_type;location;lat;lon;timestamp;P1;durP1;ratioP1;P2;durP2;ratioP2
9974;SDS011;5028;50.974;4.968;2022-12-18T00:00:39;37.30;;;22.60;;
9974;SDS011;5028;50.974;4.968;2022-12-18T00:03:08;35.70;;;23.53;;
9974;SDS011;5028;50.974;4.968;2022-12-18T00:05:50;39.50;;;24.30;;
9974;SDS011;5028;50.974;4.968;2022-12-18T00:08:34;40.00;;;24.60;;
9974;SDS011;5028;50.974;4.968;2022-12-18T00:11:11;40.30;;;25.33;;
9974;SDS011;5028;50.974;4.968;2022-12-18T00:13:40;41.27;;;24.30;;
9974;SDS011;5028;50.974;4.968;2022-12-18T00:16:16;39.17;;;24.73;;
9974;SDS011;5028;50.974;4.968;2022-12-18T00:18:47;40.43;;;23.10;;
9974;SDS011;5028;50.974;4.968;2022-12-18T00:21:22;39.60;;;24.57;;
9974;SDS011;5028;50.974;4.968;2022-12-18T00:23:51;34.77;;;22.63;;
9974;SDS011;5028;50.974;4.968;2022-12-18T00:26:27;38.07;;;24.30;;
9974;SDS011;5028;50.974;4.968;2022-12-18T00:28:57;43.30;;;24.63;;
9974;SDS011;5028;50.974;4.968;2022-12-18T00:31:33;40.47;;;24.50;;
9974;SDS011;5028;50.974;4.968;2022-12-18T00:34:02;36.13;;;23.53;;
9974;SDS011;5028;50.974;4.968;2022-12-18T00:36:37;37.60;;;23.33;;
9974;SDS011;5028;50.974;4.968;2022-12-18T00:39:06;36.47;;;23.47;;
9974;SDS011;5028;50.974;4.968;2022-12-18T00:41:42;34.30;;;21.10;;
9974;SDS011;5028;50.974;4.968;2022-12-18T00:44:27;35.00;;;20.87;;
9974;SDS011;5028;50.974;4.968;2022-12-18T00:47:02;35.70;;;20.93;;
9974;SDS011;5028;50.974;4.968;2022-12-18T00:49:30;31.50;;;19.87;;
9974;SDS011;5028;50.974;4.968;2022-12-18T00:52:05;28.83;;;19.33;;
9974;SDS011;5028;50.974;4.968;2022-12-18T00:54:34;31.67;;;19.97;;
9974;SDS011;5028;50.974;4.968;2022-12-18T00:57:09;31.67;;;19.90;;
9974;SDS011;5028;50.974;4.968;2022-12-18T00:59:37;29.87;;;18.43;;
9974;SDS011;5028;50.974;4.968;2022-12-18T01:02:16;28.83;;;18.53;;
9974;SDS011;5028;50.974;4.968;2022-12-18T01:04:44;27.30;;;18.50;;
9974;SDS011;5028;50.974;4.968;2022-12-18T01:07:25;28.67;;;18.70;;
9974;SDS011;5028;50.974;4.968;2022-12-18T01:09:55;28.00;;;17.40;;
9974;SDS011;5028;50.974;4.968;2022-12-18T01:12:30;29.60;;;18.13;;
9974;SDS011;5028;50.974;4.968;2022-12-18T01:14:58;30.50;;;19.27;;
9974;SDS011;5028;50.974;4.968;2022-12-18T01:17:33;29.03;;;17.77;;
9974;SDS011;5028;50.974;4.968;2022-12-18T01:20:01;30.20;;;19.27;;
9974;SDS011;5028;50.974;4.968;2022-12-18T01:22:37;29.93;;;19.40;;
9974;SDS011;5028;50.974;4.968;2022-12-18T01:25:07;29.17;;;18.67;;
9974;SDS011;5028;50.974;4.968;2022-12-18T01:27:42;29.47;;;18.93;;
9974;SDS011;5028;50.974;4.968;2022-12-18T01:30:10;29.07;;;17.87;;
9974;SDS011;5028;50.974;4.968;2022-12-18T01:32:46;31.80;;;18.37;;
9974;SDS011;5028;50.974;4.968;2022-12-18T01:35:14;27.67;;;17.63;;
9974;SDS011;5028;50.974;4.968;2022-12-18T01:37:49;27.33;;;17.93;;
9974;SDS011;5028;50.974;4.968;2022-12-18T01:40:22;28.40;;;18.40;;
9974;SDS011;5028;50.974;4.968;2022-12-18T01:42:58;30.47;;;17.87;;
9974;SDS011;5028;50.974;4.968;2022-12-18T01:45:26;28.83;;;18.33;;
9974;SDS011;5028;50.974;4.968;2022-12-18T01:48:02;28.80;;;18.03;;
9974;SDS011;5028;50.974;4.968;2022-12-18T01:50:35;30.33;;;19.93;;
9974;SDS011;5028;50.974;4.968;2022-12-18T01:53:13;31.27;;;19.40;;
9974;SDS011;5028;50.974;4.968;2022-12-18T01:55:45;35.47;;;21.43;;
9974;SDS011;5028;50.974;4.968;2022-12-18T01:58:22;36.27;;;21.67;;
9974;SDS011;5028;50.974;4.968;2022-12-18T02:00:59;36.23;;;22.03;;
9974;SDS011;5028;50.974;4.968;2022-12-18T02:03:35;36.03;;;21.60;;
9974;SDS011;5028;50.974;4.968;2022-12-18T02:06:12;35.00;;;20.83;;
9974;SDS011;5028;50.974;4.968;2022-12-18T02:08:53;30.33;;;19.60;;
9974;SDS011;5028;50.974;4.968;2022-12-18T02:11:33;30.70;;;19.97;;
9974;SDS011;5028;50.974;4.968;2022-12-18T02:14:17;29.30;;;18.43;;
9974;SDS011;5028;50.974;4.968;2022-12-18T02:16:52;31.17;;;17.07;;
9974;SDS011;5028;50.974;4.968;2022-12-18T02:19:42;28.57;;;18.37;;
9974;SDS011;5028;50.974;4.968;2022-12-18T02:22:23;30.77;;;19.70;;
9974;SDS011;5028;50.974;4.968;2022-12-18T02:25:05;30.40;;;18.97;;
9974;SDS011;5028;50.974;4.968;2022-12-18T02:27:44;30.13;;;19.23;;
9974;SDS011;5028;50.974;4.968;2022-12-18T02:30:22;29.57;;;18.53;;
9974;SDS011;5028;50.974;4.968;2022-12-18T02:32:51;31.53;;;18.70;;
9974;SDS011;5028;50.974;4.968;2022-12-18T02:35:27;28.77;;;18.60;;
9974;SDS011;5028;50.974;4.968;2022-12-18T02:37:57;28.70;;;18.07;;
9974;SDS011;5028;50.974;4.968;2022-12-18T02:40:33;30.70;;;18.87;;
9974;SDS011;5028;50.974;4.968;2022-12-18T02:43:06;31.63;;;18.47;;
9974;SDS011;5028;50.974;4.968;2022-12-18T02:45:48;28.13;;;16.50;;
9974;SDS011;5028;50.974;4.968;2022-12-18T02:48:21;23.97;;;15.90;;
9974;SDS011;5028;50.974;4.968;2022-12-18T02:50:59;27.23;;;16.23;;
9974;SDS011;5028;50.974;4.968;2022-12-18T02:53:36;25.40;;;15.87;;
9974;SDS011;5028;50.974;4.968;2022-12-18T02:56:18;26.67;;;16.63;;
9974;SDS011;5028;50.974;4.968;2022-12-18T02:58:53;28.83;;;15.57;;
9974;SDS011;5028;50.974;4.968;2022-12-18T03:01:33;26.03;;;16.57;;
9974;SDS011;5028;50.974;4.968;2022-12-18T03:04:14;22.67;;;15.70;;
9974;SDS011;5028;50.974;4.968;2022-12-18T03:06:55;28.60;;;16.17;;
9974;SDS011;5028;50.974;4.968;2022-12-18T03:09:27;25.57;;;16.13;;
9974;SDS011;5028;50.974;4.968;2022-12-18T03:12:07;23.87;;;15.77;;
9974;SDS011;5028;50.974;4.968;2022-12-18T03:14:54;25.43;;;16.40;;
9974;SDS011;5028;50.974;4.968;2022-12-18T03:17:33;23.70;;;15.23;;
9974;SDS011;5028;50.974;4.968;2022-12-18T03:20:04;21.33;;;14.60;;
9974;SDS011;5028;50.974;4.968;2022-12-18T03:22:43;24.93;;;16.10;;
9974;SDS011;5028;50.974;4.968;2022-12-18T03:25:14;22.43;;;15.17;;
9974;SDS011;5028;50.974;4.968;2022-12-18T03:27:51;21.37;;;14.60;;
9974;SDS011;5028;50.974;4.968;2022-12-18T03:30:24;20.30;;;14.13;;
9974;SDS011;5028;50.974;4.968;2022-12-18T03:33:02;19.97;;;13.87;;
9974;SDS011;5028;50.974;4.968;2022-12-18T03:35:36;20.77;;;13.97;;
9974;SDS011;5028;50.974;4.968;2022-12-18T03:38:13;21.70;;;14.40;;
9974;SDS011;5028;50.974;4.968;2022-12-18T03:40:44;25.70;;;15.37;;
9974;SDS011;5028;50.974;4.968;2022-12-18T03:43:30;24.17;;;16.17;;
9974;SDS011;5028;50.974;4.968;2022-12-18T03:46:14;22.83;;;15.80;;
9974;SDS011;5028;50.974;4.968;2022-12-18T03:48:56;22.13;;;14.90;;
9974;SDS011;5028;50.974;4.968;2022-12-18T03:51:31;24.80;;;14.67;;
9974;SDS011;5028;50.974;4.968;2022-12-18T03:54:11;21.77;;;15.37;;
9974;SDS011;5028;50.974;4.968;2022-12-18T03:56:40;21.23;;;14.33;;
9974;SDS011;5028;50.974;4.968;2022-12-18T03:59:18;21.50;;;14.57;;
9974;SDS011;5028;50.974;4.968;2022-12-18T04:01:49;21.63;;;14.17;;
9974;SDS011;5028;50.974;4.968;2022-12-18T04:04:26;19.57;;;13.27;;
9974;SDS011;5028;50.974;4.968;2022-12-18T04:07:09;18.93;;;12.73;;
9974;SDS011;5028;50.974;4.968;2022-12-18T04:09:38;15.93;;;11.60;;
9974;SDS011;5028;50.974;4.968;2022-12-18T04:12:14;17.90;;;12.70;;
9974;SDS011;5028;50.974;4.968;2022-12-18T04:14:42;17.37;;;11.87;;
9974;SDS011;5028;50.974;4.968;2022-12-18T04:17:18;18.07;;;12.37;;
9974;SDS011;5028;50.974;4.968;2022-12-18T04:19:47;17.97;;;11.97;;
9974;SDS011;5028;50.974;4.968;2022-12-18T04:22:21;18.10;;;12.20;;
9974;SDS011;5028;50.974;4.968;2022-12-18T04:24:49;17.20;;;12.47;;
9974;SDS011;5028;50.974;4.968;2022-12-18T04:27:24;17.93;;;12.40;;
9974;SDS011;5028;50.974;4.968;2022-12-18T04:29:52;17.83;;;11.70;;
9974;SDS011;5028;50.974;4.968;2022-12-18T04:32:28;17.50;;;12.20;;
9974;SDS011;5028;50.974;4.968;2022-12-18T04:34:56;18.17;;;12.57;;
9974;SDS011;5028;50.974;4.968;2022-12-18T04:37:31;18.43;;;12.70;;
9974;SDS011;5028;50.974;4.968;2022-12-18T04:39:59;16.70;;;12.17;;
9974;SDS011;5028;50.974;4.968;2022-12-18T04:42:34;16.67;;;11.53;;
9974;SDS011;5028;50.974;4.968;2022-12-18T04:45:02;17.37;;;11.80;;
9974;SDS011;5028;50.974;4.968;2022-12-18T04:47:38;19.90;;;12.40;;
9974;SDS011;5028;50.974;4.968;2022-12-18T04:50:07;17.33;;;12.10;;
9974;SDS011;5028;50.974;4.968;2022-12-18T04:52:42;16.70;;;11.50;;
9974;SDS011;5028;50.974;4.968;2022-12-18T04:55:10;18.60;;;12.13;;
9974;SDS011;5028;50.974;4.968;2022-12-18T04:57:45;19.90;;;12.40;;
9974;SDS011;5028;50.974;4.968;2022-12-18T05:00:13;18.07;;;11.60;;
9974;SDS011;5028;50.974;4.968;2022-12-18T05:02:57;19.13;;;12.83;;
9974;SDS011;5028;50.974;4.968;2022-12-18T05:05:41;18.87;;;12.80;;
9974;SDS011;5028;50.974;4.968;2022-12-18T05:08:16;18.77;;;12.30;;
9974;SDS011;5028;50.974;4.968;2022-12-18T05:10:45;19.37;;;12.53;;
9974;SDS011;5028;50.974;4.968;2022-12-18T05:13:20;19.20;;;12.37;;
9974;SDS011;5028;50.974;4.968;2022-12-18T05:15:51;19.93;;;13.03;;
9974;SDS011;5028;50.974;4.968;2022-12-18T05:18:28;19.90;;;13.07;;
9974;SDS011;5028;50.974;4.968;2022-12-18T05:20:57;19.43;;;12.33;;
9974;SDS011;5028;50.974;4.968;2022-12-18T05:23:35;19.60;;;12.87;;
9974;SDS011;5028;50.974;4.968;2022-12-18T05:26:05;20.43;;;12.53;;
9974;SDS011;5028;50.974;4.968;2022-12-18T05:28:40;18.53;;;12.53;;
9974;SDS011;5028;50.974;4.968;2022-12-18T05:31:08;18.30;;;11.87;;
9974;SDS011;5028;50.974;4.968;2022-12-18T05:33:45;17.07;;;11.37;;
9974;SDS011;5028;50.974;4.968;2022-12-18T05:36:13;16.87;;;11.80;;
9974;SDS011;5028;50.974;4.968;2022-12-18T05:38:48;19.07;;;12.47;;
9974;SDS011;5028;50.974;4.968;2022-12-18T05:41:16;16.73;;;11.70;;
9974;SDS011;5028;50.974;4.968;2022-12-18T05:43:51;18.47;;;12.73;;
9974;SDS011;5028;50.974;4.968;2022-12-18T05:46:19;17.77;;;12.40;;
9974;SDS011;5028;50.974;4.968;2022-12-18T05:48:58;19.53;;;11.33;;
9974;SDS011;5028;50.974;4.968;2022-12-18T05:51:27;17.73;;;12.93;;
9974;SDS011;5028;50.974;4.968;2022-12-18T05:54:02;18.97;;;12.73;;
9974;SDS011;5028;50.974;4.968;2022-12-18T05:56:31;19.60;;;13.23;;
9974;SDS011;5028;50.974;4.968;2022-12-18T05:59:12;19.30;;;12.97;;
9974;SDS011;5028;50.974;4.968;2022-12-18T06:01:40;20.53;;;12.00;;
9974;SDS011;5028;50.974;4.968;2022-12-18T06:04:24;18.47;;;12.10;;
9974;SDS011;5028;50.974;4.968;2022-12-18T06:06:54;17.90;;;12.60;;
9974;SDS011;5028;50.974;4.968;2022-12-18T06:09:29;18.13;;;12.47;;
9974;SDS011;5028;50.974;4.968;2022-12-18T06:11:58;18.30;;;11.57;;
9974;SDS011;5028;50.974;4.968;2022-12-18T06:14:33;20.00;;;11.90;;
9974;SDS011;5028;50.974;4.968;2022-12-18T06:17:01;18.87;;;12.40;;
9974;SDS011;5028;50.974;4.968;2022-12-18T06:19:37;18.67;;;11.53;;
9974;SDS011;5028;50.974;4.968;2022-12-18T06:22:05;18.13;;;12.60;;
9974;SDS011;5028;50.974;4.968;2022-12-18T06:24:40;16.70;;;11.80;;
9974;SDS011;5028;50.974;4.968;2022-12-18T06:27:08;17.83;;;12.00;;
9974;SDS011;5028;50.974;4.968;2022-12-18T06:29:43;19.47;;;11.67;;
9974;SDS011;5028;50.974;4.968;2022-12-18T06:32:11;19.67;;;13.10;;
9974;SDS011;5028;50.974;4.968;2022-12-18T06:34:47;19.07;;;12.10;;
9974;SDS011;5028;50.974;4.968;2022-12-18T06:37:15;18.33;;;12.30;;
9974;SDS011;5028;50.974;4.968;2022-12-18T06:39:50;17.97;;;11.73;;
9974;SDS011;5028;50.974;4.968;2022-12-18T06:42:18;16.90;;;11.20;;
9974;SDS011;5028;50.974;4.968;2022-12-18T06:44:53;17.47;;;11.77;;
9974;SDS011;5028;50.974;4.968;2022-12-18T06:47:24;16.50;;;11.47;;
9974;SDS011;5028;50.974;4.968;2022-12-18T06:50:00;17.23;;;11.97;;
9974;SDS011;5028;50.974;4.968;2022-12-18T06:52:31;17.87;;;10.93;;
9974;SDS011;5028;50.974;4.968;2022-12-18T06:55:05;15.53;;;11.13;;
9974;SDS011;5028;50.974;4.968;2022-12-18T06:57:34;18.27;;;11.53;;
9974;SDS011;5028;50.974;4.968;2022-12-18T07:00:09;17.20;;;12.07;;
9974;SDS011;5028;50.974;4.968;2022-12-18T07:02:38;16.17;;;11.50;;
9974;SDS011;5028;50.974;4.968;2022-12-18T07:05:14;17.47;;;11.23;;
9974;SDS011;5028;50.974;4.968;2022-12-18T07:07:49;17.23;;;11.70;;
9974;SDS011;5028;50.974;4.968;2022-12-18T07:10:24;17.10;;;11.57;;
9974;SDS011;5028;50.974;4.968;2022-12-18T07:12:52;15.93;;;11.00;;
9974;SDS011;5028;50.974;4.968;2022-12-18T07:15:27;17.00;;;11.63;;
9974;SDS011;5028;50.974;4.968;2022-12-18T07:17:55;16.10;;;11.33;;
9974;SDS011;5028;50.974;4.968;2022-12-18T07:20:31;15.80;;;11.57;;
9974;SDS011;5028;50.974;4.968;2022-12-18T07:23:01;17.17;;;11.67;;
9974;SDS011;5028;50.974;4.968;2022-12-18T07:25:36;16.77;;;11.40;;
9974;SDS011;5028;50.974;4.968;2022-12-18T07:28:05;15.20;;;11.03;;
9974;SDS011;5028;50.974;4.968;2022-12-18T07:30:42;14.73;;;10.77;;
9974;SDS011;5028;50.974;4.968;2022-12-18T07:33:12;15.67;;;10.90;;
9974;SDS011;5028;50.974;4.968;2022-12-18T07:35:48;16.07;;;10.67;;
9974;SDS011;5028;50.974;4.968;2022-12-18T07:38:16;15.87;;;11.30;;
9974;SDS011;5028;50.974;4.968;2022-12-18T07:40:51;16.03;;;10.97;;
9974;SDS011;5028;50.974;4.968;2022-12-18T07:43:19;16.27;;;10.43;;
9974;SDS011;5028;50.974;4.968;2022-12-18T07:45:54;15.67;;;9.93;;
9974;SDS011;5028;50.974;4.968;2022-12-18T07:48:22;15.13;;;10.07;;
9974;SDS011;5028;50.974;4.968;2022-12-18T07:50:59;17.30;;;11.00;;
9974;SDS011;5028;50.974;4.968;2022-12-18T07:53:28;13.53;;;9.57;;
9974;SDS011;5028;50.974;4.968;2022-12-18T07:56:04;13.83;;;8.90;;
9974;SDS011;5028;50.974;4.968;2022-12-18T07:58:53;15.60;;;11.27;;
9974;SDS011;5028;50.974;4.968;2022-12-18T08:01:28;14.00;;;10.07;;
9974;SDS011;5028;50.974;4.968;2022-12-18T08:04:03;15.50;;;10.77;;
9974;SDS011;5028;50.974;4.968;2022-12-18T08:06:39;14.50;;;9.77;;
9974;SDS011;5028;50.974;4.968;2022-12-18T08:09:14;15.80;;;10.47;;
9974;SDS011;5028;50.974;4.968;2022-12-18T08:11:49;14.53;;;9.60;;
9974;SDS011;5028;50.974;4.968;2022-12-18T08:14:17;13.57;;;9.43;;
9974;SDS011;5028;50.974;4.968;2022-12-18T08:16:52;13.20;;;10.10;;
9974;SDS011;5028;50.974;4.968;2022-12-18T08:19:20;14.57;;;9.80;;
9974;SDS011;5028;50.974;4.968;2022-12-18T08:21:56;12.90;;;9.47;;
9974;SDS011;5028;50.974;4.968;2022-12-18T08:24:25;13.93;;;9.90;;
9974;SDS011;5028;50.974;4.968;2022-12-18T08:26:59;16.03;;;9.47;;
9974;SDS011;5028;50.974;4.968;2022-12-18T08:29:47;15.47;;;9.50;;
9974;SDS011;5028;50.974;4.968;2022-12-18T08:32:22;12.17;;;9.03;;
9974;SDS011;5028;50.974;4.968;2022-12-18T08:34:51;13.07;;;9.20;;
9974;SDS011;5028;50.974;4.968;2022-12-18T08:37:26;13.10;;;9.20;;
9974;SDS011;5028;50.974;4.968;2022-12-18T08:39:55;12.73;;;9.33;;
9974;SDS011;5028;50.974;4.968;2022-12-18T08:42:29;12.23;;;9.03;;
9974;SDS011;5028;50.974;4.968;2022-12-18T08:45:14;14.07;;;9.37;;
9974;SDS011;5028;50.974;4.968;2022-12-18T08:47:50;14.00;;;9.33;;
9974;SDS011;5028;50.974;4.968;2022-12-18T08:50:18;13.40;;;8.53;;
9974;SDS011;5028;50.974;4.968;2022-12-18T08:52:54;11.90;;;8.43;;
9974;SDS011;5028;50.974;4.968;2022-12-18T08:55:22;11.50;;;8.67;;
9974;SDS011;5028;50.974;4.968;2022-12-18T08:57:57;13.10;;;8.93;;
9974;SDS011;5028;50.974;4.968;2022-12-18T09:00:25;13.17;;;8.90;;
9974;SDS011;5028;50.974;4.968;2022-12-18T09:03:10;12.33;;;8.87;;
9974;SDS011;5028;50.974;4.968;2022-12-18T09:05:52;14.40;;;8.87;;
9974;SDS011;5028;50.974;4.968;2022-12-18T09:08:28;13.27;;;8.53;;
9974;SDS011;5028;50.974;4.968;2022-12-18T09:10:57;13.13;;;8.83;;
9974;SDS011;5028;50.974;4.968;2022-12-18T09:13:31;13.27;;;8.77;;
9974;SDS011;5028;50.974;4.968;2022-12-18T09:15:59;12.90;;;8.90;;
9974;SDS011;5028;50.974;4.968;2022-12-18T09:18:36;14.40;;;8.77;;
9974;SDS011;5028;50.974;4.968;2022-12-18T09:21:08;12.27;;;8.80;;
9974;SDS011;5028;50.974;4.968;2022-12-18T09:23:48;12.67;;;9.43;;
9974;SDS011;5028;50.974;4.968;2022-12-18T09:26:17;14.10;;;8.53;;
9974;SDS011;5028;50.974;4.968;2022-12-18T09:28:51;11.57;;;8.33;;
9974;SDS011;5028;50.974;4.968;2022-12-18T09:31:21;12.70;;;8.43;;
9974;SDS011;5028;50.974;4.968;2022-12-18T09:33:56;11.10;;;8.07;;
9974;SDS011;5028;50.974;4.968;2022-12-18T09:36:24;11.77;;;8.53;;
9974;SDS011;5028;50.974;4.968;2022-12-18T09:39:00;11.57;;;7.97;;
9974;SDS011;5028;50.974;4.968;2022-12-18T09:41:37;11.03;;;8.40;;
9974;SDS011;5028;50.974;4.968;2022-12-18T09:44:17;14.03;;;9.03;;
9974;SDS011;5028;50.974;4.968;2022-12-18T09:46:50;12.80;;;8.10;;
9974;SDS011;5028;50.974;4.968;2022-12-18T09:49:30;12.70;;;8.77;;
9974;SDS011;5028;50.974;4.968;2022-12-18T09:52:02;12.47;;;8.60;;
9974;SDS011;5028;50.974;4.968;2022-12-18T09:54:44;10.90;;;7.93;;
9974;SDS011;5028;50.974;4.968;2022-12-18T09:57:17;11.53;;;8.30;;
9974;SDS011;5028;50.974;4.968;2022-12-18T09:59:55;9.83;;;7.97;;
9974;SDS011;5028;50.974;4.968;2022-12-18T10:02:26;10.90;;;8.23;;
9974;SDS011;5028;50.974;4.968;2022-12-18T10:05:11;8.83;;;7.27;;
9974;SDS011;5028;50.974;4.968;2022-12-18T10:07:47;11.67;;;8.30;;
9974;SDS011;5028;50.974;4.968;2022-12-18T10:10:33;11.43;;;8.10;;
9974;SDS011;5028;50.974;4.968;2022-12-18T10:13:14;9.83;;;7.63;;
9974;SDS011;5028;50.974;4.968;2022-12-18T10:15:58;9.83;;;7.70;;
9974;SDS011;5028;50.974;4.968;2022-12-18T10:18:50;11.50;;;8.27;;
9974;SDS011;5028;50.974;4.968;2022-12-18T10:21:37;11.37;;;8.90;;
9974;SDS011;5028;50.974;4.968;2022-12-18T10:24:13;14.33;;;8.60;;
9974;SDS011;5028;50.974;4.968;2022-12-18T10:26:56;12.07;;;8.07;;
9974;SDS011;5028;50.974;4.968;2022-12-18T10:29:36;10.47;;;8.13;;
9974;SDS011;5028;50.974;4.968;2022-12-18T10:32:13;9.87;;;7.97;;
9974;SDS011;5028;50.974;4.968;2022-12-18T10:34:46;11.63;;;8.23;;
9974;SDS011;5028;50.974;4.968;2022-12-18T10:37:26;12.93;;;8.70;;
9974;SDS011;5028;50.974;4.968;2022-12-18T10:40:07;9.27;;;7.80;;
9974;SDS011;5028;50.974;4.968;2022-12-18T10:42:51;10.47;;;8.20;;
9974;SDS011;5028;50.974;4.968;2022-12-18T10:45:31;11.53;;;8.17;;
9974;SDS011;5028;50.974;4.968;2022-12-18T10:48:17;10.53;;;8.40;;
9974;SDS011;5028;50.974;4.968;2022-12-18T10:50:47;10.77;;;8.30;;
9974;SDS011;5028;50.974;4.968;2022-12-18T10:53:41;11.43;;;8.27;;
9974;SDS011;5028;50.974;4.968;2022-12-18T10:56:16;11.27;;;8.07;;
9974;SDS011;5028;50.974;4.968;2022-12-18T10:58:56;13.53;;;8.97;;
9974;SDS011;5028;50.974;4.968;2022-12-18T11:01:44;10.73;;;8.80;;
9974;SDS011;5028;50.974;4.968;2022-12-18T11:04:19;14.50;;;8.77;;
9974;SDS011;5028;50.974;4.968;2022-12-18T11:07:09;11.17;;;8.43;;
9974;SDS011;5028;50.974;4.968;2022-12-18T11:09:38;15.20;;;8.90;;
9974;SDS011;5028;50.974;4.968;2022-12-18T11:12:15;10.37;;;8.83;;
9974;SDS011;5028;50.974;4.968;2022-12-18T11:14:47;10.33;;;8.40;;
9974;SDS011;5028;50.974;4.968;2022-12-18T11:17:26;12.87;;;8.90;;
9974;SDS011;5028;50.974;4.968;2022-12-18T11:19:57;11.00;;;8.27;;
9974;SDS011;5028;50.974;4.968;2022-12-18T11:22:34;10.73;;;7.70;;
9974;SDS011;5028;50.974;4.968;2022-12-18T11:25:05;9.27;;;8.07;;
9974;SDS011;5028;50.974;4.968;2022-12-18T11:28:01;11.60;;;8.73;;
9974;SDS011;5028;50.974;4.968;2022-12-18T11:30:32;9.63;;;8.03;;
9974;SDS011;5028;50.974;4.968;2022-12-18T11:33:09;10.30;;;8.17;;
9974;SDS011;5028;50.974;4.968;2022-12-18T11:35:42;10.90;;;8.30;;
9974;SDS011;5028;50.974;4.968;2022-12-18T11:38:23;11.80;;;8.80;;
9974;SDS011;5028;50.974;4.968;2022-12-18T11:40:55;10.67;;;8.40;;
9974;SDS011;5028;50.974;4.968;2022-12-18T11:43:34;12.43;;;8.70;;
9974;SDS011;5028;50.974;4.968;2022-12-18T11:46:10;11.73;;;9.20;;
9974;SDS011;5028;50.974;4.968;2022-12-18T11:48:48;11.50;;;9.17;;
9974;SDS011;5028;50.974;4.968;2022-12-18T11:51:22;18.23;;;11.30;;
9974;SDS011;5028;50.974;4.968;2022-12-18T11:54:01;16.23;;;10.73;;
9974;SDS011;5028;50.974;4.968;2022-12-18T11:56:39;13.00;;;9.43;;
9974;SDS011;5028;50.974;4.968;2022-12-18T11:59:23;15.73;;;11.77;;
9974;SDS011;5028;50.974;4.968;2022-12-18T12:02:03;13.00;;;10.93;;
9974;SDS011;5028;50.974;4.968;2022-12-18T12:04:59;12.87;;;9.83;;
9974;SDS011;5028;50.974;4.968;2022-12-18T12:07:49;14.00;;;8.93;;
9974;SDS011;5028;50.974;4.968;2022-12-18T12:10:33;13.20;;;9.93;;
9974;SDS011;5028;50.974;4.968;2022-12-18T12:13:16;12.40;;;9.57;;
9974;SDS011;5028;50.974;4.968;2022-12-18T12:16:02;13.07;;;10.17;;
9974;SDS011;5028;50.974;4.968;2022-12-18T12:18:40;12.17;;;9.07;;
9974;SDS011;5028;50.974;4.968;2022-12-18T12:21:28;15.37;;;9.93;;
9974;SDS011;5028;50.974;4.968;2022-12-18T12:24:05;13.07;;;10.00;;
9974;SDS011;5028;50.974;4.968;2022-12-18T12:26:57;13.37;;;10.10;;
9974;SDS011;5028;50.974;4.968;2022-12-18T12:29:37;13.63;;;9.60;;
9974;SDS011;5028;50.974;4.968;2022-12-18T12:32:27;13.83;;;10.40;;
9974;SDS011;5028;50.974;4.968;2022-12-18T12:35:10;13.37;;;10.00;;
9974;SDS011;5028;50.974;4.968;2022-12-18T12:37:58;14.57;;;10.03;;
9974;SDS011;5028;50.974;4.968;2022-12-18T12:40:36;13.80;;;10.43;;
9974;SDS011;5028;50.974;4.968;2022-12-18T12:43:30;12.93;;;9.77;;
9974;SDS011;5028;50.974;4.968;2022-12-18T12:46:03;17.23;;;9.67;;
9974;SDS011;5028;50.974;4.968;2022-12-18T12:48:40;15.00;;;10.83;;
9974;SDS011;5028;50.974;4.968;2022-12-18T12:51:15;12.87;;;9.87;;
9974;SDS011;5028;50.974;4.968;2022-12-18T12:53:51;12.77;;;10.47;;
9974;SDS011;5028;50.974;4.968;2022-12-18T12:56:21;14.67;;;10.70;;
9974;SDS011;5028;50.974;4.968;2022-12-18T12:59:12;12.97;;;9.60;;
9974;SDS011;5028;50.974;4.968;2022-12-18T13:01:49;17.63;;;11.10;;
9974;SDS011;5028;50.974;4.968;2022-12-18T13:04:39;13.27;;;11.13;;
9974;SDS011;5028;50.974;4.968;2022-12-18T13:07:16;13.83;;;10.40;;
9974;SDS011;5028;50.974;4.968;2022-12-18T13:12:53;12.10;;;9.93;;
9974;SDS011;5028;50.974;4.968;2022-12-18T13:15:36;14.47;;;11.03;;
9974;SDS011;5028;50.974;4.968;2022-12-18T13:18:16;13.77;;;10.97;;
9974;SDS011;5028;50.974;4.968;2022-12-18T13:21:01;13.40;;;10.90;;
9974;SDS011;5028;50.974;4.968;2022-12-18T13:23:37;14.17;;;10.47;;
9974;SDS011;5028;50.974;4.968;2022-12-18T13:26:28;12.23;;;10.37;;
9974;SDS011;5028;50.974;4.968;2022-12-18T13:28:59;12.67;;;10.30;;
9974;SDS011;5028;50.974;4.968;2022-12-18T13:34:48;12.33;;;9.93;;
9974;SDS011;5028;50.974;4.968;2022-12-18T13:37:42;13.73;;;10.27;;
9974;SDS011;5028;50.974;4.968;2022-12-18T13:43:32;14.37;;;11.10;;
9974;SDS011;5028;50.974;4.968;2022-12-18T13:46:17;12.97;;;10.50;;
9974;SDS011;5028;50.974;4.968;2022-12-18T13:49:00;12.90;;;10.70;;
9974;SDS011;5028;50.974;4.968;2022-12-18T13:51:32;16.50;;;11.07;;
9974;SDS011;5028;50.974;4.968;2022-12-18T13:54:13;14.47;;;11.03;;
9974;SDS011;5028;50.974;4.968;2022-12-18T13:56:48;14.40;;;11.57;;
9974;SDS011;5028;50.974;4.968;2022-12-18T13:59:25;14.10;;;11.30;;
9974;SDS011;5028;50.974;4.968;2022-12-18T14:01:55;14.20;;;10.83;;
9974;SDS011;5028;50.974;4.968;2022-12-18T14:04:33;14.67;;;10.83;;
9974;SDS011;5028;50.974;4.968;2022-12-18T14:07:16;17.10;;;13.43;;
9974;SDS011;5028;50.974;4.968;2022-12-18T14:09:58;13.77;;;12.13;;
9974;SDS011;5028;50.974;4.968;2022-12-18T14:12:48;14.10;;;11.73;;
9974;SDS011;5028;50.974;4.968;2022-12-18T14:15:32;14.23;;;11.60;;
9974;SDS011;5028;50.974;4.968;2022-12-18T14:18:09;14.63;;;11.93;;
9974;SDS011;5028;50.974;4.968;2022-12-18T14:20:53;14.73;;;12.27;;
9974;SDS011;5028;50.974;4.968;2022-12-18T14:23:28;16.67;;;12.53;;
9974;SDS011;5028;50.974;4.968;2022-12-18T14:26:19;13.90;;;11.53;;
9974;SDS011;5028;50.974;4.968;2022-12-18T14:28:49;13.23;;;11.40;;
9974;SDS011;5028;50.974;4.968;2022-12-18T14:31:27;14.47;;;11.93;;
9974;SDS011;5028;50.974;4.968;2022-12-18T14:33:56;13.53;;;11.43;;
9974;SDS011;5028;50.974;4.968;2022-12-18T14:36:31;15.70;;;11.50;;
9974;SDS011;5028;50.974;4.968;2022-12-18T14:38:59;13.47;;;11.50;;
9974;SDS011;5028;50.974;4.968;2022-12-18T14:41:34;15.80;;;11.23;;
9974;SDS011;5028;50.974;4.968;2022-12-18T14:44:05;14.73;;;11.60;;
9974;SDS011;5028;50.974;4.968;2022-12-18T14:46:42;18.33;;;14.20;;
9974;SDS011;5028;50.974;4.968;2022-12-18T14:49:18;20.23;;;14.93;;
9974;SDS011;5028;50.974;4.968;2022-12-18T14:51:56;15.37;;;12.77;;
9974;SDS011;5028;50.974;4.968;2022-12-18T14:54:26;16.53;;;12.77;;
9974;SDS011;5028;50.974;4.968;2022-12-18T14:57:03;18.50;;;12.37;;
9974;SDS011;5028;50.974;4.968;2022-12-18T14:59:33;17.00;;;15.00;;
9974;SDS011;5028;50.974;4.968;2022-12-18T15:02:12;16.87;;;13.10;;
9974;SDS011;5028;50.974;4.968;2022-12-18T15:04:46;17.30;;;12.57;;
9974;SDS011;5028;50.974;4.968;2022-12-18T15:07:38;15.17;;;12.23;;
9974;SDS011;5028;50.974;4.968;2022-12-18T15:10:10;14.17;;;11.87;;
9974;SDS011;5028;50.974;4.968;2022-12-18T15:12:47;14.03;;;12.13;;
9974;SDS011;5028;50.974;4.968;2022-12-18T15:18:23;14.10;;;11.73;;
9974;SDS011;5028;50.974;4.968;2022-12-18T15:20:57;15.07;;;12.23;;
9974;SDS011;5028;50.974;4.968;2022-12-18T15:23:34;15.70;;;12.10;;
9974;SDS011;5028;50.974;4.968;2022-12-18T15:26:06;17.97;;;12.03;;
9974;SDS011;5028;50.974;4.968;2022-12-18T15:28:43;15.70;;;12.17;;
9974;SDS011;5028;50.974;4.968;2022-12-18T15:31:22;14.67;;;12.03;;
9974;SDS011;5028;50.974;4.968;2022-12-18T15:36:47;15.33;;;12.60;;
9974;SDS011;5028;50.974;4.968;2022-12-18T15:39:23;15.67;;;12.30;;
9974;SDS011;5028;50.974;4.968;2022-12-18T15:41:52;15.97;;;12.63;;
9974;SDS011;5028;50.974;4.968;2022-12-18T15:44:43;16.13;;;12.57;;
9974;SDS011;5028;50.974;4.968;2022-12-18T15:47:12;14.53;;;12.53;;
9974;SDS011;5028;50.974;4.968;2022-12-18T15:49:48;16.67;;;12.60;;
9974;SDS011;5028;50.974;4.968;2022-12-18T15:52:16;16.73;;;12.93;;
9974;SDS011;5028;50.974;4.968;2022-12-18T15:54:58;15.97;;;12.47;;
9974;SDS011;5028;50.974;4.968;2022-12-18T15:57:44;15.93;;;12.77;;
9974;SDS011;5028;50.974;4.968;2022-12-18T16:00:19;16.03;;;12.40;;